Time;durP1;ratioP1;P1;durP2;ratioP2;P2;SDS_P1;SDS_P2;PMS_P1;PMS_P2;Temp;Humidity;BMP_temperature;BMP_pressure;BME280_temperature;BME280_humidity;BME280_pressure;Samples;Min_cycle;Max_cycle;Signal;HPM_P1;HPM_P2
2023/05/26 00:01:26;;;;;;;11.30;7.60;;;;;;;14.51;100.00;100009.06;5005999;28;20125;-19
2023/05/26 00:03:51;;;;;;;10.27;6.68;;;;;;;14.14;100.00;100012.22;5006298;28;20021;-19
2023/05/26 00:06:20;;;;;;;16.02;8.00;;;;;;;14.05;100.00;100009.94;5006122;28;20117;-19
2023/05/26 00:08:49;;;;;;;9.40;6.35;;;;;;;13.61;100.00;100012.41;5006483;28;20045;-19
2023/05/26 00:11:16;;;;;;;13.48;8.23;;;;;;;13.49;100.00;100022.38;5006026;28;20532;-18
2023/05/26 00:13:42;;;;;;;11.55;7.82;;;;;;;13.43;100.00;100008.06;5006148;28;20077;-19
2023/05/26 00:16:08;;;;;;;13.65;8.55;;;;;;;13.97;100.00;100017.56;5006920;28;20798;-19
2023/05/26 00:18:34;;;;;;;18.98;9.40;;;;;;;13.95;100.00;100015.13;5009581;28;20469;-19
2023/05/26 00:21:00;;;;;;;11.25;7.72;;;;;;;14.05;100.00;100004.56;5009391;28;20030;-21
2023/05/26 00:23:26;;;;;;;14.10;7.90;;;;;;;14.13;100.00;100006.03;5009569;28;20030;-18
2023/05/26 00:25:52;;;;;;;12.30;8.48;;;;;;;13.90;100.00;100001.66;5009363;28;20382;-19
2023/05/26 00:28:17;;;;;;;12.82;8.27;;;;;;;14.10;100.00;100003.03;5009450;28;20366;-19
2023/05/26 00:30:42;;;;;;;12.73;7.78;;;;;;;14.25;100.00;99998.72;5009226;28;20148;-18
2023/05/26 00:33:08;;;;;;;10.85;8.25;;;;;;;14.42;100.00;100001.38;5008912;28;20029;-19
2023/05/26 00:35:33;;;;;;;12.15;8.00;;;;;;;14.29;100.00;100004.44;5009297;28;20033;-20
2023/05/26 00:37:59;;;;;;;11.27;6.78;;;;;;;14.29;100.00;100003.63;5009063;28;20022;-18
2023/05/26 00:40:24;;;;;;;10.32;6.93;;;;;;;14.20;100.00;100000.50;5008789;28;20045;-18
2023/05/26 00:42:50;;;;;;;10.88;7.55;;;;;;;14.23;100.00;100005.41;5008786;28;20108;-18
2023/05/26 00:45:15;;;;;;;10.10;7.60;;;;;;;14.11;100.00;100007.34;5009099;28;20069;-18
2023/05/26 00:47:41;;;;;;;9.48;6.60;;;;;;;14.26;100.00;100004.91;5008905;28;20149;-19
2023/05/26 00:50:07;;;;;;;12.07;7.63;;;;;;;14.26;100.00;100018.31;5008913;28;20041;-18
2023/05/26 00:52:34;;;;;;;12.57;7.40;;;;;;;14.29;100.00;100020.53;5008999;28;20036;-19
2023/05/26 00:55:00;;;;;;;11.32;7.28;;;;;;;14.30;100.00;100014.09;5008629;28;20026;-18
2023/05/26 00:57:27;;;;;;;10.15;7.13;;;;;;;14.36;100.00;100009.63;5008655;28;20041;-19
2023/05/26 00:59:55;;;;;;;10.95;7.38;;;;;;;14.16;100.00;100012.78;5008824;28;20029;-19
2023/05/26 01:02:22;;;;;;;11.48;7.43;;;;;;;14.27;100.00;100014.59;5008593;28;20050;-18
2023/05/26 01:04:52;;;;;;;10.05;7.47;;;;;;;14.55;100.00;100012.88;4991266;28;20047;-18
2023/05/26 01:07:19;;;;;;;11.30;7.60;;;;;;;14.46;100.00;100021.34;5008792;28;20037;-20
2023/05/26 01:09:45;;;;;;;12.13;7.63;;;;;;;14.31;100.00;100017.59;5008836;28;20022;-18
2023/05/26 01:12:59;;;;;;;12.57;7.68;;;;;;;14.47;100.00;100016.78;5008592;28;20037;-20
2023/05/26 01:15:30;;;;;;;11.90;7.38;;;;;;;14.31;100.00;100015.72;5004239;28;20061;-19
2023/05/26 01:18:07;;;;;;;9.05;6.18;;;;;;;14.45;100.00;100022.38;5008341;28;20053;-18
2023/05/26 01:20:54;;;;;;;9.57;6.32;;;;;;;14.18;100.00;100024.09;5008169;28;20026;-19
2023/05/26 01:23:37;;;;;;;7.78;5.18;;;;;;;14.03;100.00;100017.41;5008228;28;20511;-20
2023/05/26 01:26:21;;;;;;;7.70;4.80;;;;;;;13.93;100.00;100019.91;5008397;28;20172;-18
2023/05/26 01:28:53;;;;;;;9.65;5.28;;;;;;;13.55;100.00;100016.06;5008194;28;20052;-18
2023/05/26 01:31:19;;;;;;;8.15;5.00;;;;;;;13.39;100.00;100027.53;5008141;28;20484;-25
2023/05/26 01:33:44;;;;;;;8.25;4.75;;;;;;;13.12;100.00;100019.16;5008407;28;20022;-19
2023/05/26 01:36:10;;;;;;;6.22;4.00;;;;;;;13.03;100.00;100024.09;5008313;28;20116;-18
2023/05/26 01:38:35;;;;;;;7.72;4.38;;;;;;;13.26;100.00;100021.38;5007704;28;20107;-18
2023/05/26 01:41:14;;;;;;;7.30;4.82;;;;;;;13.51;100.00;100014.91;5007906;28;20481;-18
2023/05/26 01:43:58;;;;;;;8.07;5.32;;;;;;;13.55;100.00;100015.25;5007804;28;20712;-17
2023/05/26 01:46:34;;;;;;;9.45;5.07;;;;;;;13.66;100.00;100015.16;5007807;28;20087;-18
2023/05/26 01:49:04;;;;;;;9.10;5.72;;;;;;;13.70;100.00;100022.75;5007979;28;20030;-19
2023/05/26 01:51:33;;;;;;;12.13;5.80;;;;;;;13.44;100.00;100019.56;5007981;28;20041;-18
2023/05/26 01:54:01;;;;;;;8.35;4.80;;;;;;;13.21;100.00;100039.19;5007504;28;20021;-19
2023/05/26 01:56:31;;;;;;;8.32;3.80;;;;;;;12.41;100.00;100028.09;5007863;28;20062;-18
2023/05/26 01:58:58;;;;;;;9.60;4.15;;;;;;;12.44;100.00;100029.47;5007668;28;20124;-18
2023/05/26 02:01:26;;;;;;;9.45;5.78;;;;;;;12.93;100.00;100037.25;5007690;28;20034;-19
2023/05/26 02:03:52;;;;;;;9.88;4.82;;;;;;;13.12;100.00;100038.75;5007529;28;20493;-19
2023/05/26 02:06:17;;;;;;;10.48;5.85;;;;;;;13.12;100.00;100036.06;5007815;28;20029;-18
2023/05/26 02:08:43;;;;;;;8.32;5.05;;;;;;;13.18;100.00;100037.81;5007537;28;20042;-19
2023/05/26 02:11:08;;;;;;;8.10;4.90;;;;;;;13.21;100.00;100040.00;5007488;28;20029;-21
2023/05/26 02:13:33;;;;;;;7.53;5.25;;;;;;;13.35;100.00;100042.44;5007672;28;20030;-19
2023/05/26 02:15:59;;;;;;;7.95;4.70;;;;;;;13.03;100.00;100040.16;5007461;28;20029;-20
2023/05/26 02:18:24;;;;;;;6.97;4.57;;;;;;;13.10;100.00;100040.00;5007491;28;20022;-19
2023/05/26 02:20:50;;;;;;;12.10;5.30;;;;;;;13.08;100.00;100040.28;5007386;28;20061;-18
2023/05/26 02:23:15;;;;;;;8.40;4.65;;;;;;;12.61;100.00;100037.63;5007355;28;20031;-18
2023/05/26 02:25:41;;;;;;;12.02;5.00;;;;;;;12.98;100.00;100043.53;5007307;28;20034;-18
2023/05/26 02:28:07;;;;;;;10.00;4.50;;;;;;;12.63;100.00;100024.84;5007443;28;20022;-18
2023/05/26 02:30:32;;;;;;;9.90;5.22;;;;;;;12.93;100.00;100039.94;5007189;28;20049;-18
2023/05/26 02:32:58;;;;;;;8.32;4.90;;;;;;;13.18;100.00;100037.81;5007158;28;20088;-19
2023/05/26 02:35:23;;;;;;;10.70;4.80;;;;;;;13.22;100.00;100033.59;5007191;28;20037;-17
2023/05/26 02:37:49;;;;;;;10.43;5.18;;;;;;;13.22;100.00;100033.59;5006906;28;20042;-18
2023/05/26 02:40:15;;;;;;;10.32;4.65;;;;;;;13.08;100.00;100026.88;5006270;28;20507;-19
2023/05/26 02:42:40;;;;;;;11.02;4.70;;;;;;;12.81;100.00;100032.75;5006808;28;20157;-19
2023/05/26 02:45:07;;;;;;;6.82;4.57;;;;;;;12.51;100.00;100026.72;5007188;28;20053;-19
2023/05/26 02:47:32;;;;;;;4.85;2.95;;;;;;;12.17;100.00;100037.94;5006668;28;20026;-19
2023/05/26 02:49:57;;;;;;;4.43;2.65;;;;;;;11.92;100.00;100024.75;5006697;28;20030;-18
2023/05/26 02:52:23;;;;;;;4.53;2.65;;;;;;;11.78;100.00;100021.44;5006896;28;20037;-19
2023/05/26 02:54:48;;;;;;;5.10;2.92;;;;;;;12.37;100.00;100029.59;5006838;28;20032;-19
2023/05/26 02:57:14;;;;;;;4.95;3.08;;;;;;;12.50;100.00;100025.88;5006767;28;20053;-18
2023/05/26 02:59:39;;;;;;;6.63;4.03;;;;;;;12.21;100.00;100004.34;5006547;28;20029;-19
2023/05/26 03:02:05;;;;;;;9.48;4.45;;;;;;;12.46;100.00;100022.88;5007098;28;20030;-18
2023/05/26 03:04:30;;;;;;;8.88;4.93;;;;;;;12.46;100.00;100030.91;5006738;28;20472;-18
2023/05/26 03:06:56;;;;;;;9.98;4.82;;;;;;;12.48;100.00;100032.50;5006790;28;20382;-20
2023/05/26 03:09:21;;;;;;;12.13;5.80;;;;;;;12.38;100.00;100027.72;5006708;28;20025;-23
2023/05/26 03:11:47;;;;;;;9.60;5.30;;;;;;;12.72;100.00;100036.81;5006837;28;20045;-19
2023/05/26 03:14:12;;;;;;;11.25;4.90;;;;;;;12.74;100.00;100042.75;5006633;28;20029;-18
2023/05/26 03:16:37;;;;;;;11.15;5.38;;;;;;;12.72;100.00;100042.16;5006722;28;20111;-18
2023/05/26 03:19:03;;;;;;;8.75;4.75;;;;;;;12.62;100.00;100039.25;4989191;28;20480;-18
2023/05/26 03:21:30;;;;;;;9.00;5.00;;;;;;;12.88;100.00;100054.03;5006100;28;20536;-18
2023/05/26 03:23:55;;;;;;;9.18;4.60;;;;;;;13.08;100.00;100053.66;5006700;28;20108;-18
2023/05/26 03:26:21;;;;;;;9.38;4.80;;;;;;;13.18;100.00;100051.19;5006550;28;20113;-22
2023/05/26 03:28:47;;;;;;;8.52;4.70;;;;;;;12.86;100.00;100051.56;5006714;28;20030;-19
2023/05/26 03:31:12;;;;;;;7.50;4.35;;;;;;;12.92;100.00;100051.69;5006416;28;20037;-20
2023/05/26 03:33:37;;;;;;;7.47;4.35;;;;;;;12.46;100.00;100035.41;5006595;28;20026;-19
2023/05/26 03:36:03;;;;;;;8.27;4.47;;;;;;;12.50;100.00;100043.78;5006503;28;20029;-21
2023/05/26 03:38:28;;;;;;;7.65;4.30;;;;;;;12.72;100.00;100044.84;5006288;28;20034;-18
2023/05/26 03:40:54;;;;;;;6.57;3.97;;;;;;;12.98;100.00;100043.53;5006234;28;20056;-19
2023/05/26 03:43:19;;;;;;;6.20;4.45;;;;;;;13.03;100.00;100040.16;5006897;28;20459;-19
2023/05/26 03:45:45;;;;;;;9.43;4.93;;;;;;;12.89;100.00;100046.81;5006152;28;20085;-18
2023/05/26 03:48:14;;;;;;;7.55;4.82;;;;;;;12.89;100.00;100049.47;5006481;28;20034;-20
2023/05/26 03:50:41;;;;;;;7.80;3.67;;;;;;;12.70;100.00;100057.63;5008134;28;20120;-20
2023/05/26 03:53:07;;;;;;;9.02;4.35;;;;;;;12.88;100.00;100054.03;5010051;28;20037;-19
2023/05/26 03:55:33;;;;;;;7.97;4.65;;;;;;;13.15;100.00;100059.69;5009943;28;20037;-19
2023/05/26 03:57:59;;;;;;;9.65;4.97;;;;;;;13.49;100.00;100069.78;5010237;28;20080;-19
2023/05/26 04:00:28;;;;;;;7.97;5.20;;;;;;;13.65;100.00;100067.16;5009930;28;20022;-19
2023/05/26 04:02:54;;;;;;;9.52;5.30;;;;;;;13.64;100.00;100070.88;5010195;28;20037;-19
2023/05/26 04:05:20;;;;;;;9.23;5.45;;;;;;;13.59;100.00;100070.78;5010029;28;20022;-18
2023/05/26 04:07:46;;;;;;;9.05;5.15;;;;;;;13.56;100.00;100071.25;5009800;28;20040;-19
2023/05/26 04:10:11;;;;;;;9.77;5.97;;;;;;;13.63;100.00;100071.94;5009589;28;20125;-19
2023/05/26 04:12:37;;;;;;;8.70;5.03;;;;;;;13.71;100.00;100073.44;5009659;28;20405;-19
2023/05/26 04:15:03;;;;;;;8.88;5.47;;;;;;;14.12;100.00;100067.97;5009468;28;20057;-19
2023/05/26 04:17:29;;;;;;;8.70;6.05;;;;;;;14.29;100.00;100068.81;5009364;28;20520;-18
2023/05/26 04:19:54;;;;;;;9.10;5.50;;;;;;;14.43;100.00;100074.66;5009610;28;20034;-20
2023/05/26 04:22:20;;;;;;;9.95;5.30;;;;;;;14.63;100.00;100068.84;5009612;28;20116;-16
2023/05/26 04:24:45;;;;;;;8.02;5.97;;;;;;;14.68;100.00;100068.91;5009439;28;20053;-18
2023/05/26 04:27:11;;;;;;;10.40;6.20;;;;;;;14.78;100.00;100082.47;5009499;28;20026;-18
2023/05/26 04:29:36;;;;;;;8.90;5.47;;;;;;;14.90;100.00;100078.91;5009434;28;20052;-18
2023/05/26 04:32:02;;;;;;;10.82;6.63;;;;;;;15.06;100.00;100078.03;5009411;28;20022;-18
2023/05/26 04:34:28;;;;;;;12.50;6.95;;;;;;;15.18;100.00;100086.81;5009443;28;20065;-18
2023/05/26 04:36:54;;;;;;;12.25;6.60;;;;;;;15.15;100.00;100081.09;5008999;28;20033;-20
2023/05/26 04:39:19;;;;;;;10.05;6.63;;;;;;;15.25;100.00;100075.88;5009771;28;20049;-18
2023/05/26 04:41:46;;;;;;;10.48;7.03;;;;;;;15.29;100.00;100081.56;5008863;28;20155;-19
2023/05/26 04:44:12;;;;;;;10.77;7.07;;;;;;;15.25;100.00;100087.41;5009136;28;20034;-18
2023/05/26 04:46:38;;;;;;;11.05;7.20;;;;;;;15.45;100.00;100081.47;5009048;28;20547;-18
2023/05/26 04:49:04;;;;;;;10.05;8.02;;;;;;;15.48;100.00;100082.84;5008818;28;20034;-18
2023/05/26 04:51:32;;;;;;;13.30;8.77;;;;;;;15.64;100.00;100086.53;5009016;28;20437;-18
2023/05/26 04:53:58;;;;;;;12.48;8.25;;;;;;;15.66;100.00;100087.91;5008788;28;20041;-17
2023/05/26 04:56:23;;;;;;;14.73;9.57;;;;;;;15.74;100.00;100085.88;5009026;28;20065;-22
2023/05/26 04:58:49;;;;;;;15.05;8.40;;;;;;;15.89;100.00;100096.78;5008767;28;20370;-17
2023/05/26 05:01:16;;;;;;;14.00;8.55;;;;;;;15.80;100.00;100092.94;5008033;28;20053;-18
2023/05/26 05:03:42;;;;;;;12.98;8.57;;;;;;;15.92;100.00;100095.47;5008420;28;20476;-18
2023/05/26 05:06:08;;;;;;;10.52;8.38;;;;;;;16.02;100.00;100100.97;5008767;28;20138;-18
2023/05/26 05:08:34;;;;;;;13.82;8.38;;;;;;;16.27;100.00;100097.69;5008773;28;20061;-18
2023/05/26 05:10:59;;;;;;;12.93;8.35;;;;;;;16.35;100.00;100093.72;5008607;28;20038;-17
2023/05/26 05:13:25;;;;;;;14.60;9.05;;;;;;;16.48;100.00;100083.31;5008623;28;20092;-20
2023/05/26 05:15:50;;;;;;;12.45;8.95;;;;;;;16.55;100.00;100072.34;5008916;28;20034;-18
2023/05/26 05:18:16;;;;;;;15.38;8.23;;;;;;;16.58;100.00;100079.09;5008565;28;20038;-18
2023/05/26 05:20:41;;;;;;;14.57;8.93;;;;;;;16.51;100.00;100056.94;5008186;28;20026;-17
2023/05/26 05:23:06;;;;;;;14.50;9.60;;;;;;;16.76;100.00;100078.69;5008542;28;20028;-18
2023/05/26 05:25:32;;;;;;;11.75;8.63;;;;;;;16.81;100.00;100084.13;5008499;28;20037;-18
2023/05/26 05:27:57;;;;;;;11.45;9.48;;;;;;;16.76;100.00;100097.53;5008084;28;20437;-18
2023/05/26 05:30:23;;;;;;;13.73;9.18;;;;;;;16.99;100.00;100087.47;5008378;28;20045;-16
2023/05/26 05:32:48;;;;;;;14.40;8.85;;;;;;;17.22;100.00;100092.47;5008083;28;20034;-18
2023/05/26 05:35:14;;;;;;;12.95;9.25;;;;;;;17.18;100.00;100095.91;5008359;28;20029;-19
2023/05/26 05:37:39;;;;;;;9.73;7.63;;;;;;;17.30;100.00;100085.72;5007923;28;20026;-18
2023/05/26 05:40:05;;;;;;;11.48;8.27;;;;;;;17.27;100.00;100092.47;5008089;28;20038;-18
2023/05/26 05:42:30;;;;;;;13.07;8.05;;;;;;;17.36;100.00;100097.34;5008054;28;20033;-18
2023/05/26 05:44:56;;;;;;;10.93;7.50;;;;;;;17.49;100.00;100096.88;5008086;28;20022;-18
2023/05/26 05:47:21;;;;;;;14.45;7.72;;;;;;;17.57;100.00;100104.47;5008122;28;20034;-20
2023/05/26 05:49:47;;;;;;;11.48;8.20;;;;;;;17.59;100.00;100102.31;5007968;28;20021;-18
2023/05/26 05:52:14;;;;;;;10.65;6.97;;;;;;;17.66;100.00;100102.84;5008085;28;20042;-18
2023/05/26 05:54:40;;;;;;;10.00;7.17;;;;;;;17.72;100.00;100116.38;5008187;28;20026;-18
2023/05/26 05:57:05;;;;;;;12.43;7.68;;;;;;;17.78;100.00;100121.50;5008150;28;20593;-18
2023/05/26 05:59:31;;;;;;;14.52;7.55;;;;;;;17.79;100.00;100116.91;5007989;28;20038;-20
2023/05/26 06:01:56;;;;;;;11.35;8.00;;;;;;;17.59;100.00;100107.69;5007690;28;20063;-18
2023/05/26 06:04:22;;;;;;;12.40;7.30;;;;;;;17.74;100.00;100119.63;5007778;28;20104;-19
2023/05/26 06:06:47;;;;;;;10.45;7.13;;;;;;;17.83;100.00;100118.03;5007844;28;20045;-18
2023/05/26 06:09:13;;;;;;;11.60;6.85;;;;;;;17.73;100.00;100112.59;5007739;28;20025;-19
2023/05/26 06:11:38;;;;;;;9.52;6.53;;;;;;;17.90;100.00;100118.63;5007521;28;20089;-18
2023/05/26 06:14:03;;;;;;;10.88;7.50;;;;;;;17.84;100.00;100108.88;5007532;28;20030;-18
2023/05/26 06:16:29;;;;;;;11.43;6.47;;;;;;;17.94;100.00;100127.78;5007100;28;20029;-19
2023/05/26 06:18:54;;;;;;;10.75;6.32;;;;;;;17.96;100.00;100128.34;5007595;28;20038;-18
2023/05/26 06:21:20;;;;;;;10.23;6.78;;;;;;;18.17;100.00;100133.78;5007662;28;20033;-18
2023/05/26 06:23:45;;;;;;;10.00;6.80;;;;;;;18.12;100.00;100122.97;5007434;28;20057;-18
2023/05/26 06:26:11;;;;;;;11.05;7.10;;;;;;;18.15;100.00;100131.34;5006944;28;20021;-18
2023/05/26 06:28:36;;;;;;;9.70;6.80;;;;;;;18.21;100.00;100148.34;5007147;28;20045;-18
2023/05/26 06:31:02;;;;;;;7.90;6.40;;;;;;;18.25;100.00;100146.75;5007345;28;20026;-19
2023/05/26 06:33:27;;;;;;;11.18;7.13;;;;;;;18.20;100.00;100146.72;5007066;28;20037;-18
2023/05/26 06:35:52;;;;;;;10.60;6.82;;;;;;;18.26;100.00;100149.16;5007339;28;20156;-19
2023/05/26 06:38:18;;;;;;;11.27;7.65;;;;;;;18.22;100.00;100148.06;5006894;28;20033;-19
2023/05/26 06:40:43;;;;;;;9.93;6.53;;;;;;;18.24;100.00;100154.00;5006883;28;20100;-18
2023/05/26 06:43:09;;;;;;;9.90;6.10;;;;;;;18.12;100.00;100149.94;5007293;28;20029;-18
2023/05/26 06:45:35;;;;;;;8.82;6.00;;;;;;;18.11;100.00;100156.44;5006760;28;20041;-20
2023/05/26 06:48:01;;;;;;;9.32;7.13;;;;;;;18.14;100.00;100155.88;5005566;28;20037;-18
2023/05/26 06:50:26;;;;;;;9.93;7.20;;;;;;;18.07;100.00;100156.97;5006852;28;20572;-22
2023/05/26 06:52:51;;;;;;;8.90;7.07;;;;;;;17.89;100.00;100137.75;5007179;28;20118;-19
2023/05/26 06:55:19;;;;;;;11.10;7.68;;;;;;;17.89;100.00;100132.38;5006598;28;20025;-18
2023/05/26 06:57:44;;;;;;;11.75;7.43;;;;;;;17.97;100.00;100151.53;5006841;28;20038;-19
2023/05/26 07:00:11;;;;;;;10.15;7.05;;;;;;;17.82;100.00;100154.97;5006352;28;20129;-21
2023/05/26 07:02:36;;;;;;;9.48;6.72;;;;;;;18.09;100.00;100154.00;5006451;28;20029;-18
2023/05/26 07:05:03;;;;;;;11.32;7.18;;;;;;;18.10;100.00;100149.41;5007006;28;20026;-18
2023/05/26 07:07:28;;;;;;;11.15;6.75;;;;;;;17.94;100.00;100146.69;5006638;28;20084;-19
2023/05/26 07:09:54;;;;;;;9.27;6.30;;;;;;;18.04;100.00;100151.28;5006725;28;20034;-19
2023/05/26 07:12:20;;;;;;;11.05;6.30;;;;;;;18.19;100.00;100151.31;5006598;28;20033;-18
2023/05/26 07:14:46;;;;;;;9.55;6.53;;;;;;;18.32;100.00;100158.09;5006409;28;20030;-18
2023/05/26 07:17:11;;;;;;;9.90;6.32;;;;;;;18.41;100.00;100164.59;5006636;28;20161;-18
2023/05/26 07:19:37;;;;;;;8.55;5.95;;;;;;;18.65;100.00;100154.06;5006811;28;20025;-19
2023/05/26 07:22:02;;;;;;;9.75;5.97;;;;;;;18.98;100.00;100153.78;5006289;28;20029;-18
2023/05/26 07:24:28;;;;;;;8.00;5.65;;;;;;;19.05;100.00;100154.31;5006931;28;20506;-19
2023/05/26 07:26:53;;;;;;;9.55;6.05;;;;;;;19.33;100.00;100165.59;5010643;28;20788;-18
2023/05/26 07:29:19;;;;;;;8.60;5.50;;;;;;;19.41;100.00;100173.16;5010496;28;20028;-20
2023/05/26 07:31:44;;;;;;;8.13;5.93;;;;;;;19.63;100.00;100173.63;5010508;28;20080;-18
2023/05/26 07:34:10;;;;;;;8.52;5.18;;;;;;;19.54;100.00;100169.88;5010385;28;20030;-18
2023/05/26 07:36:35;;;;;;;8.40;5.82;;;;;;;19.48;100.00;100158.25;5010421;28;20049;-19
2023/05/26 07:39:01;;;;;;;11.10;5.70;;;;;;;19.47;100.00;100169.34;4998245;28;20117;-18
2023/05/26 07:41:26;;;;;;;10.95;6.50;;;;;;;19.47;100.00;100174.75;4990816;28;20516;-19
2023/05/26 07:43:52;;;;;;;9.98;5.80;;;;;;;19.65;100.00;100174.16;4990475;28;20118;-19
2023/05/26 07:46:17;;;;;;;9.68;6.47;;;;;;;19.74;100.00;100174.44;4990595;28;20019;-20
2023/05/26 07:48:43;;;;;;;9.10;5.82;;;;;;;19.78;100.00;100177.41;4990614;28;20493;-18
2023/05/26 07:51:08;;;;;;;10.02;6.35;;;;;;;19.74;100.00;100187.16;4990301;28;20084;-19
2023/05/26 07:53:35;;;;;;;9.32;6.22;;;;;;;19.81;100.00;100174.94;4989310;28;20022;-18
2023/05/26 07:56:01;;;;;;;7.97;6.18;;;;;;;20.05;100.00;100180.50;4989856;28;20105;-18
2023/05/26 07:58:26;;;;;;;9.50;6.85;;;;;;;20.18;100.00;100173.66;4989520;28;20023;-22
2023/05/26 08:00:51;;;;;;;11.20;6.50;;;;;;;20.25;100.00;100176.06;4990355;28;20041;-18
2023/05/26 08:03:17;;;;;;;10.57;6.40;;;;;;;20.40;100.00;100173.25;4990380;28;20877;-19
2023/05/26 08:05:43;;;;;;;9.85;6.80;;;;;;;20.47;100.00;100168.34;4990420;28;20034;-18
2023/05/26 08:08:09;;;;;;;10.20;6.93;;;;;;;20.76;100.00;100175.72;4990276;28;20023;-18
2023/05/26 08:10:36;;;;;;;8.88;6.53;;;;;;;20.99;100.00;100176.06;4990257;28;20085;-18
2023/05/26 08:13:01;;;;;;;10.80;6.50;;;;;;;20.92;100.00;100172.88;4990157;28;20092;-18
2023/05/26 08:15:26;;;;;;;9.52;6.18;;;;;;;21.14;97.00;100175.91;4990358;28;20026;-18
2023/05/26 08:17:52;;;;;;;7.97;5.65;;;;;;;21.31;98.61;100170.06;4990007;28;20489;-17
2023/05/26 08:20:18;;;;;;;9.65;5.03;;;;;;;21.32;92.63;100182.50;4989901;28;20414;-18
2023/05/26 08:22:44;;;;;;;7.20;5.07;;;;;;;21.39;97.22;100176.72;4989876;28;20541;-19
2023/05/26 08:25:09;;;;;;;7.80;5.28;;;;;;;21.61;91.19;100182.47;4990144;28;20041;-18
2023/05/26 08:27:34;;;;;;;7.60;4.80;;;;;;;21.60;91.28;100172.72;4990131;28;20030;-21
2023/05/26 08:30:00;;;;;;;8.02;4.60;;;;;;;21.72;92.08;100174.19;4989666;28;20030;-18
2023/05/26 08:32:25;;;;;;;7.55;4.05;;;;;;;21.69;85.06;100177.50;4990001;28;20022;-18
2023/05/26 08:34:51;;;;;;;6.95;4.22;;;;;;;21.59;87.29;100164.88;4989737;28;20022;-19
2023/05/26 08:37:18;;;;;;;8.82;4.28;;;;;;;21.20;91.22;100158.47;4988480;28;20026;-19
2023/05/26 08:39:44;;;;;;;11.27;5.07;;;;;;;21.02;94.47;100170.06;4989655;28;20043;-18
2023/05/26 08:42:17;;;;;;;8.90;4.53;;;;;;;21.38;93.64;100159.66;4989496;28;20045;-18
2023/05/26 08:44:44;;;;;;;8.43;5.20;;;;;;;21.56;94.64;100166.25;4989643;28;20038;-18
2023/05/26 08:47:11;;;;;;;7.18;4.68;;;;;;;21.47;91.39;100159.84;4989493;28;20018;-20
2023/05/26 08:49:41;;;;;;;6.05;4.30;;;;;;;21.51;88.00;100169.03;4989368;28;20057;-18
2023/05/26 08:52:13;;;;;;;10.10;4.97;;;;;;;21.54;91.31;100168.47;4989371;28;20568;-19
2023/05/26 08:54:41;;;;;;;7.43;5.03;;;;;;;21.74;87.76;100163.88;4989258;28;20061;-18
2023/05/26 08:57:09;;;;;;;7.22;5.10;;;;;;;21.60;89.14;100156.44;4989462;28;20116;-18
2023/05/26 08:59:36;;;;;;;8.68;4.45;;;;;;;21.80;90.63;100165.41;4989431;28;20038;-18
2023/05/26 09:02:02;;;;;;;8.10;5.20;;;;;;;21.67;90.71;100165.03;4989314;28;20062;-19
2023/05/26 09:04:30;;;;;;;8.65;5.07;;;;;;;21.57;91.14;100164.34;4989340;28;20337;-19
2023/05/26 09:06:56;;;;;;;7.85;4.68;;;;;;;21.66;88.92;100158.00;4989245;28;20081;-18
2023/05/26 09:09:21;;;;;;;7.38;4.00;;;;;;;21.80;84.80;100151.84;4997925;28;20046;-19
2023/05/26 09:11:47;;;;;;;5.80;4.00;;;;;;;22.02;84.91;100154.78;5007997;28;20381;-18
2023/05/26 09:14:14;;;;;;;6.38;3.78;;;;;;;22.14;77.83;100153.56;5007562;28;20116;-19
2023/05/26 09:16:39;;;;;;;8.25;4.70;;;;;;;22.41;84.03;100153.72;5007662;28;20030;-19
2023/05/26 09:19:06;;;;;;;5.88;3.85;;;;;;;22.53;84.63;100155.16;5006169;28;20030;-18
2023/05/26 09:21:31;;;;;;;8.35;3.55;;;;;;;22.73;79.32;100152.13;5008447;28;20500;-19
2023/05/26 09:23:59;;;;;;;7.35;3.80;;;;;;;22.62;73.41;100154.19;5008127;28;20037;-18
2023/05/26 09:26:27;;;;;;;6.68;4.00;;;;;;;22.78;76.94;100151.22;5006223;28;20029;-18
2023/05/26 09:28:52;;;;;;;;;;;;;;;22.75;71.66;100141.75;5008121;28;20084;-20
2023/05/26 09:31:18;;;;;;;7.47;3.75;;;;;;;22.90;70.41;100142.59;5007944;28;19921;-18
2023/05/26 09:33:48;;;;;;;5.05;3.40;;;;;;;22.79;70.60;100142.75;5007991;28;20038;-19
2023/05/26 09:36:15;;;;;;;6.50;3.50;;;;;;;22.96;69.52;100130.50;5000418;28;20044;-19
2023/05/26 09:38:42;;;;;;;5.13;2.97;;;;;;;23.32;68.87;100121.72;5007733;28;20030;-18
2023/05/26 09:41:08;;;;;;;4.25;2.90;;;;;;;23.60;65.04;100127.91;5007170;28;20041;-18
2023/05/26 09:43:34;;;;;;;5.88;2.85;;;;;;;23.53;62.55;100120.16;5007724;28;20491;-18
2023/05/26 09:46:00;;;;;;;4.32;2.72;;;;;;;23.69;65.84;100111.69;5007927;28;21223;-20
2023/05/26 09:48:25;;;;;;;5.07;3.08;;;;;;;23.72;65.95;100108.34;5007096;28;20123;-24
2023/05/26 09:50:52;;;;;;;4.35;2.47;;;;;;;24.18;62.45;100110.84;5006992;28;20033;-20
2023/05/26 09:53:17;;;;;;;3.70;2.28;;;;;;;24.68;55.73;100107.19;5005772;28;20511;-18
2023/05/26 09:55:44;;;;;;;6.18;2.95;;;;;;;24.55;51.83;100102.66;5007481;28;20030;-18
2023/05/26 09:58:11;;;;;;;4.43;2.00;;;;;;;24.82;51.12;100099.72;5007047;28;20480;-21
2023/05/26 10:00:40;;;;;;;7.53;2.50;;;;;;;25.15;51.72;100083.03;5007971;28;20037;-20
2023/05/26 10:03:07;;;;;;;6.18;2.55;;;;;;;25.62;50.33;100091.53;5007540;28;20279;-18
2023/05/26 10:05:39;;;;;;;6.30;2.53;;;;;;;25.91;51.27;100081.09;5008099;28;20025;-19
2023/05/26 10:08:06;;;;;;;3.90;2.45;;;;;;;25.98;48.02;100070.50;5006573;28;20139;-18
2023/05/26 10:10:33;;;;;;;3.47;2.35;;;;;;;25.78;50.30;100069.19;5007264;28;20045;-19
2023/05/26 10:12:58;;;;;;;3.45;2.13;;;;;;;25.70;45.05;100059.88;5007155;28;20060;-19
2023/05/26 10:15:25;;;;;;;4.50;2.42;;;;;;;25.88;49.09;100060.69;5006956;28;20424;-19
2023/05/26 10:17:50;;;;;;;6.43;2.70;;;;;;;26.09;45.68;100057.31;5006548;28;20048;-22
2023/05/26 10:20:16;;;;;;;4.72;2.20;;;;;;;26.49;43.53;100057.09;5006535;28;20393;-18
2023/05/26 10:23:05;;;;;;;4.97;2.20;;;;;;;26.59;44.26;100056.78;5002145;28;20113;-18
2023/05/26 10:25:43;;;;;;;5.28;2.53;;;;;;;26.43;43.10;100054.53;5001393;28;20056;-19
2023/05/26 10:28:36;;;;;;;4.55;2.10;;;;;;;26.80;41.59;100048.63;5006266;28;20112;-18
2023/05/26 10:31:02;;;;;;;4.55;2.53;;;;;;;26.86;41.35;100045.38;5004812;28;20044;-18
2023/05/26 10:33:38;;;;;;;3.67;2.55;;;;;;;26.63;41.53;100028.44;5006655;28;20026;-18
2023/05/26 10:36:07;;;;;;;4.15;1.90;;;;;;;26.91;41.50;100019.78;5005862;28;20046;-19
2023/05/26 10:38:37;;;;;;;3.65;2.05;;;;;;;27.00;44.28;100034.22;5006595;28;20038;-23
2023/05/26 10:41:08;;;;;;;4.43;2.03;;;;;;;26.68;45.86;100029.38;5014435;28;20045;-21
2023/05/26 10:43:33;;;;;;;4.20;2.22;;;;;;;27.10;42.46;100027.56;5023351;28;20511;-21
2023/05/26 10:46:03;;;;;;;3.42;1.98;;;;;;;27.19;41.05;100000.94;5018144;28;20033;-19
2023/05/26 10:48:56;;;;;;;4.72;2.10;;;;;;;27.80;38.58;100016.94;5023464;28;20038;-18
2023/05/26 10:51:31;;;;;;;4.95;2.20;;;;;;;27.33;38.98;100008.94;5005654;28;20033;-22
2023/05/26 10:53:57;;;;;;;4.43;1.95;;;;;;;27.39;43.63;100001.31;5022551;28;20099;-18
2023/05/26 10:56:40;;;;;;;4.75;2.00;;;;;;;27.68;40.02;100002.38;5018672;28;20424;-18
2023/05/26 10:59:06;;;;;;;4.05;2.45;;;;;;;27.97;39.47;99996.84;5019544;28;20045;-18
2023/05/26 11:01:32;;;;;;;3.38;2.00;;;;;;;27.81;40.19;99996.63;5017914;28;20037;-18
2023/05/26 11:04:09;;;;;;;4.18;2.20;;;;;;;28.07;38.24;99978.34;5016895;28;20116;-20
2023/05/26 11:06:58;;;;;;;4.22;2.20;;;;;;;28.88;39.52;99992.41;5017715;28;20046;-18
2023/05/26 11:09:27;;;;;;;3.53;2.05;;;;;;;28.69;35.98;99979.25;5019089;28;20088;-18
2023/05/26 11:11:58;;;;;;;5.30;2.20;;;;;;;29.15;36.87;99988.16;5022264;28;20120;-18
2023/05/26 11:14:28;;;;;;;5.07;2.15;;;;;;;28.84;39.79;99987.59;5019963;28;20032;-18
2023/05/26 11:16:59;;;;;;;3.00;2.10;;;;;;;28.66;36.69;99991.72;5017283;28;20036;-18